Milligan, Nebraska
Current Conditions -  °F | °C
As of 5:55 PM on Monday 22 Dec 2014 (Local Time) from KHJH Reporting Station
Overcast Overcast  
Wind Chill: 38°   Ceiling: 7000
Heat Index: 43°   Visibility: 10mi
Dew Point: 31°   Wind: 9mph
Humidity: 63%   Direction: 320°NW
Pressure: 29.52"   Gusts: NA
Location:  40.5°N, 97.39°W
Report Text: KHJH 222355Z AUTO 32008KT 10SM SCT065 OVC070 06/00 A2952 RMK AO2 T00611005 10090 20061
Loading
Personal Weather Stations






























Interactive Weather Map New forecast layout! Learn more

10-Day Weather Forecast

Advertisements
Track Severe Weather on mobile